Elsie, Michigan
Current Conditions -  °F | °C
As of 12:53 AM on Sunday 23 Nov 2014 (Local Time) from KRNP Reporting Station
Broken Clouds Broken Clouds  
Wind Chill: 45°   Ceiling: 2500
Heat Index: 48°   Visibility: 10mi
Dew Point: 45°   Wind: 8mph
Humidity: 89%   Direction: 210°SSW
Pressure: 29.89"   Gusts: NA
Location:  43.09°N, 84.39°W
Report Text: KRNP 230553Z AUTO 21007KT 10SM BKN025 BKN060 09/07 A2989 RMK AO2 T00910074
Loading
Personal Weather Stations






























Interactive Weather Map New forecast layout! Learn more

10-Day Weather Forecast

Advertisements
Track Severe Weather on mobile